In Rescue
 
Open Full Screen Window  High Contrast Mode
Wind Gusting 15 knots
09
May 13, 2021 11:10 AM CDT
Weather Information
Wind Direction
  240 °
Wind Speed
  09 kt (10 mph)
Wind Gust
  15 kt (17 mph)
Altimeter
30.38 in
Visibility
10 SM
Temperature
18° C
64° F
Dewpoint
-01° C
30° F
Humidity
28%
1hr Rain Fall
00.00 in.
24hr Rain Fall
00.00 in.
Sky Condition
Clear
VFR

METAR KAUM 131610Z AUTO 24009G15KT 10SM CLR 18/M01 A3038 RMK AO2

FAA Disclaimer: The data displayed is for advisory purposes only and is not to be used for flight planning or operations.